Emmen Airport

Airport
ICAO code: 
LSME
IATA Code: 
EML
Summary
ICAO Region: 
EUR
Territory: 
Location: 
Emmen Dorf, Luzern
Serving: 
Emmen
Elevation: 
1400 ft
Coordinates: 
Aerial View: 
47° 5' 32.528" N, 8° 18' 18.421" E
Metar
Observation
LSME 171720Z AUTO VRB02KT 9999NDV OVC033 03/03 Q1036 RMK
Station
EMMEN
Date/Time
2022-01-17 17:20:00
Wind speed
02 kts
Lowest cloud amount
overcast
Temperature
3°C
Dew point
3°C
Humidity
100%
QNH
1036 hPa
Weather condition
n/a

Militärflugplatz Emmen (Emmen Military Air Base) (IATA: EML, ICAO: LSME) is a military airfield north of Emmen, Switzerland, located northwest of Lucerne.

Climatology

Humid continental climate (Köppen climate classification Dfb)

Runways

Designator Length Width Surface Rops
4/22 2502 40 ASP No/No
Airport map: 
Aerial View: 

SKYbrary Partners:

Safety knowledge contributed by: